Time;durP1;ratioP1;P1;durP2;ratioP2;P2;SDS_P1;SDS_P2;PMS_P1;PMS_P2;Temp;Humidity;BMP_temperature;BMP_pressure;BME280_temperature;BME280_humidity;BME280_pressure;Samples;Min_cycle;Max_cycle;Signal;HPM_P1;HPM_P2
2021/07/30 00:02:12;;;;;;;4.53;4.13;;;;;;;18.96;78.38;96074.97;4988128;28;20235;-56
2021/07/30 00:04:38;;;;;;;3.97;3.67;;;;;;;18.74;78.91;96074.69;4989266;28;20205;-58
2021/07/30 00:07:03;;;;;;;4.03;3.70;;;;;;;18.74;79.17;96069.34;4992572;28;20181;-61
2021/07/30 00:09:29;;;;;;;5.17;3.87;;;;;;;18.74;79.25;96073.88;4997140;28;20177;-61
2021/07/30 00:11:54;;;;;;;4.33;4.03;;;;;;;18.73;79.04;96074.97;4991883;28;20184;-57
2021/07/30 00:14:20;;;;;;;4.53;4.13;;;;;;;18.80;78.78;96067.44;4985936;28;20201;-56
2021/07/30 00:16:45;;;;;;;4.23;3.63;;;;;;;18.56;78.80;96067.44;4989747;28;20209;-56
2021/07/30 00:19:10;;;;;;;3.73;3.43;;;;;;;18.48;79.39;96067.28;4985717;28;20188;-61
2021/07/30 00:21:36;;;;;;;5.43;4.10;;;;;;;18.56;78.89;96067.44;4988970;28;20177;-56
2021/07/30 00:24:02;;;;;;;4.17;3.87;;;;;;;18.68;78.46;96075.81;4989276;28;20213;-56
2021/07/30 00:26:27;;;;;;;4.80;4.23;;;;;;;18.62;78.59;96068.97;4989694;28;20185;-57
2021/07/30 00:28:52;;;;;;;4.40;4.10;;;;;;;18.61;78.47;96070.03;4985648;28;20200;-60
2021/07/30 00:31:18;;;;;;;5.90;3.90;;;;;;;18.72;78.30;96068.03;4989775;28;20648;-56
2021/07/30 00:33:43;;;;;;;4.00;3.60;;;;;;;18.66;78.30;96061.22;4996189;28;20174;-56
2021/07/30 00:36:09;;;;;;;4.40;3.83;;;;;;;18.63;78.66;96053.78;4987677;28;20930;-61
2021/07/30 00:38:34;;;;;;;5.20;4.37;;;;;;;18.72;78.13;96054.75;4985174;28;20316;-61
2021/07/30 00:41:00;;;;;;;4.80;4.13;;;;;;;18.71;78.26;96053.16;4986255;28;20194;-57
2021/07/30 00:43:26;;;;;;;4.77;4.37;;;;;;;18.67;78.25;96055.59;4985592;28;20267;-57
2021/07/30 00:45:53;;;;;;;3.50;3.30;;;;;;;18.65;78.29;96056.94;4989225;28;20963;-61
2021/07/30 00:48:20;;;;;;;4.67;3.67;;;;;;;18.54;78.48;96053.63;4985576;28;20429;-56
2021/07/30 00:50:46;;;;;;;5.50;4.30;;;;;;;18.48;78.84;96064.59;4990432;28;20433;-61
2021/07/30 00:53:12;;;;;;;4.60;3.87;;;;;;;18.45;78.64;96057.97;4986876;28;20499;-56
2021/07/30 00:55:38;;;;;;;4.30;3.90;;;;;;;18.51;78.37;96064.03;4986227;28;20521;-59
2021/07/30 00:58:04;;;;;;;3.90;3.60;;;;;;;18.50;78.19;96057.13;4986277;28;20477;-61
2021/07/30 01:00:29;;;;;;;3.87;3.57;;;;;;;18.44;78.32;96051.84;4988292;28;20907;-61
2021/07/30 01:02:54;;;;;;;4.50;4.10;;;;;;;18.45;78.33;96053.44;4985185;28;20980;-60
2021/07/30 01:05:20;;;;;;;4.27;3.87;;;;;;;18.28;79.18;96054.94;4985908;28;20224;-59
2021/07/30 01:07:46;;;;;;;4.37;3.97;;;;;;;18.27;79.18;96048.81;4986111;28;20577;-61
2021/07/30 01:10:11;;;;;;;4.57;4.17;;;;;;;18.34;79.10;96046.63;4988072;28;20189;-56
2021/07/30 01:12:37;;;;;;;4.13;3.80;;;;;;;18.44;78.60;96037.78;4984775;28;20530;-60
2021/07/30 01:15:04;;;;;;;3.90;3.60;;;;;;;18.43;78.51;96041.50;4984561;28;20201;-56
2021/07/30 01:17:29;;;;;;;5.80;3.50;;;;;;;18.42;78.04;96053.22;4985649;28;20864;-59
2021/07/30 01:19:55;;;;;;;4.30;3.90;;;;;;;18.39;78.26;96046.56;4988352;28;20464;-60
2021/07/30 01:22:22;;;;;;;4.23;3.83;;;;;;;18.37;78.73;96048.69;4988464;28;20598;-57
2021/07/30 01:24:52;;;;;;;3.67;3.40;;;;;;;18.45;78.36;96055.31;4986489;28;20193;-58
2021/07/30 01:27:17;;;;;;;4.03;3.80;;;;;;;18.36;78.72;96052.44;4985485;28;20919;-59
2021/07/30 01:29:43;;;;;;;4.27;3.87;;;;;;;18.40;78.34;96053.47;4988665;28;20432;-61
2021/07/30 01:32:08;;;;;;;4.40;3.87;;;;;;;18.35;78.29;96050.06;4985834;28;20644;-59
2021/07/30 01:34:33;;;;;;;5.27;4.70;;;;;;;18.35;78.35;96050.06;4983862;28;20205;-56
2021/07/30 01:36:59;;;;;;;4.80;4.07;;;;;;;18.30;78.80;96053.56;4984721;28;22387;-58
2021/07/30 01:39:24;;;;;;;4.83;3.80;;;;;;;18.29;78.58;96048.53;4988522;28;20190;-56
2021/07/30 01:41:50;;;;;;;4.00;3.70;;;;;;;18.28;78.89;96044.28;4988574;28;20204;-56
2021/07/30 01:44:15;;;;;;;3.83;3.43;;;;;;;18.26;78.73;96044.56;4991068;28;20213;-56
2021/07/30 01:46:41;;;;;;;4.53;4.17;;;;;;;18.31;78.22;96055.16;4990994;28;20185;-55
2021/07/30 01:49:06;;;;;;;4.93;3.70;;;;;;;18.22;78.25;96050.72;4985138;28;20231;-60
2021/07/30 01:51:32;;;;;;;4.30;3.90;;;;;;;18.27;78.01;96045.34;4984641;28;20182;-60
2021/07/30 01:53:57;;;;;;;4.10;3.67;;;;;;;18.14;78.34;96046.81;4988911;28;20197;-56
2021/07/30 01:56:23;;;;;;;5.00;4.60;;;;;;;18.10;78.24;96050.31;4989703;28;20215;-56
2021/07/30 01:58:48;;;;;;;4.43;4.03;;;;;;;17.92;79.03;96046.47;4986153;28;20206;-60
2021/07/30 02:01:13;;;;;;;4.23;3.87;;;;;;;17.95;78.93;96047.78;4984228;28;20180;-60
2021/07/30 02:03:39;;;;;;;3.93;3.57;;;;;;;17.97;78.82;96040.34;4990390;28;21802;-55
2021/07/30 02:06:08;;;;;;;4.87;4.27;;;;;;;18.06;78.63;96044.75;4989815;28;20178;-56
2021/07/30 02:08:35;;;;;;;4.27;3.93;;;;;;;18.07;78.29;96037.56;4987638;28;20536;-60
2021/07/30 02:11:06;;;;;;;3.90;3.60;;;;;;;18.07;78.53;96034.91;4984452;28;20432;-59
2021/07/30 02:16:15;;;;;;;5.80;3.80;;;;;;;17.91;78.78;96044.09;4984514;28;20520;-56
2021/07/30 02:18:40;;;;;;;6.30;4.43;;;;;;;17.79;79.06;96036.47;4984732;28;20889;-56
2021/07/30 02:21:06;;;;;;;3.90;3.60;;;;;;;17.76;79.35;96041.56;4985805;28;20188;-60
2021/07/30 02:23:31;;;;;;;4.63;4.20;;;;;;;17.88;78.51;96029.50;4985589;28;20186;-61
2021/07/30 02:25:56;;;;;;;4.20;3.80;;;;;;;17.87;78.33;96035.91;4985622;28;20177;-60
2021/07/30 02:28:22;;;;;;;3.87;3.53;;;;;;;17.88;78.57;96031.38;4990209;28;20174;-60
2021/07/30 02:30:47;;;;;;;4.33;3.93;;;;;;;17.81;78.96;96036.22;4993625;28;20542;-60
2021/07/30 02:33:12;;;;;;;6.07;3.93;;;;;;;17.83;78.97;96028.75;4994245;28;20259;-60
2021/07/30 02:35:38;;;;;;;5.03;4.10;;;;;;;17.84;78.53;96028.50;4989879;28;20204;-60
2021/07/30 02:38:03;;;;;;;4.33;3.60;;;;;;;17.66;79.37;96023.06;4984918;28;20566;-56
2021/07/30 02:40:29;;;;;;;9.33;5.07;;;;;;;17.72;78.79;96021.94;4986325;28;20174;-57
2021/07/30 02:42:54;;;;;;;4.10;3.67;;;;;;;17.77;78.80;96020.03;4982968;28;20185;-60
2021/07/30 02:45:19;;;;;;;3.53;3.33;;;;;;;17.76;78.63;96023.75;4984520;28;20288;-60
2021/07/30 02:47:45;;;;;;;4.23;3.83;;;;;;;17.75;78.78;96019.53;4986010;28;20172;-55
2021/07/30 02:50:10;;;;;;;3.97;3.57;;;;;;;17.75;79.13;96018.72;4994373;28;20621;-60
2021/07/30 02:52:35;;;;;;;4.13;3.83;;;;;;;17.73;79.63;96016.34;4983836;28;20216;-59
2021/07/30 02:55:01;;;;;;;3.93;3.63;;;;;;;17.69;79.32;96019.84;4985362;28;20225;-60
2021/07/30 02:57:26;;;;;;;4.03;3.63;;;;;;;17.72;79.28;96019.28;4986100;28;20201;-60
2021/07/30 02:59:51;;;;;;;4.40;3.30;;;;;;;17.71;78.84;96013.19;4983319;28;20544;-59
2021/07/30 03:02:17;;;;;;;3.73;3.43;;;;;;;17.57;79.87;96014.09;4984637;28;20227;-57
2021/07/30 03:04:42;;;;;;;4.10;3.80;;;;;;;17.65;79.42;96008.16;4982296;28;20221;-57
2021/07/30 03:07:07;;;;;;;3.93;3.63;;;;;;;17.61;79.14;96017.78;4984139;28;20177;-60
2021/07/30 03:09:33;;;;;;;4.47;4.07;;;;;;;17.56;79.38;96013.28;4983449;28;20208;-58
2021/07/30 03:11:58;;;;;;;6.50;4.83;;;;;;;17.48;79.50;96003.28;4984738;28;20184;-60
2021/07/30 03:14:23;;;;;;;3.60;3.33;;;;;;;17.36;79.96;96010.75;4986525;28;20205;-60
2021/07/30 03:16:49;;;;;;;4.30;3.90;;;;;;;17.34;80.16;96015.53;4984402;28;20207;-58
2021/07/30 03:19:14;;;;;;;4.10;3.80;;;;;;;17.35;79.91;96009.19;4983971;28;20169;-56
2021/07/30 03:21:40;;;;;;;4.33;3.93;;;;;;;17.39;79.78;96002.25;4986911;28;20173;-56
2021/07/30 03:24:05;;;;;;;4.77;4.33;;;;;;;17.43;79.46;96005.91;4981721;28;20201;-58
2021/07/30 03:26:32;;;;;;;4.00;3.60;;;;;;;17.42;79.50;95996.38;4983735;28;20187;-61
2021/07/30 03:28:57;;;;;;;3.77;3.40;;;;;;;17.45;79.38;95999.25;4982681;28;20177;-56
2021/07/30 03:31:23;;;;;;;4.27;3.93;;;;;;;17.51;79.41;95999.25;4986346;28;20937;-60
2021/07/30 03:33:48;;;;;;;3.40;3.10;;;;;;;17.50;79.59;95997.69;4993295;28;20165;-56
2021/07/30 03:36:14;;;;;;;4.37;3.97;;;;;;;17.42;79.73;95996.38;4984928;28;20181;-60
2021/07/30 03:38:39;;;;;;;3.73;3.43;;;;;;;17.35;80.25;95988.72;4982697;28;20209;-59
2021/07/30 03:41:05;;;;;;;4.30;3.90;;;;;;;17.37;80.08;95991.09;4971148;28;20272;-58
2021/07/30 03:43:31;;;;;;;4.50;3.90;;;;;;;17.39;80.30;95988.97;4986545;28;20262;-58
2021/07/30 03:45:57;;;;;;;4.67;4.27;;;;;;;17.37;80.32;95986.56;4982421;28;20224;-60
2021/07/30 03:48:22;;;;;;;4.27;3.87;;;;;;;17.40;80.44;95985.22;4982516;28;20452;-60
2021/07/30 03:50:47;;;;;;;4.63;4.23;;;;;;;17.42;80.23;95981.22;4989350;28;20232;-61
2021/07/30 03:53:13;;;;;;;4.03;3.73;;;;;;;17.42;80.04;95975.91;4984106;28;20182;-61
2021/07/30 03:55:38;;;;;;;4.33;3.93;;;;;;;17.43;80.08;95976.69;4990359;28;20197;-60
2021/07/30 03:58:03;;;;;;;4.30;3.90;;;;;;;17.37;80.25;95972.50;4986342;28;20193;-56
2021/07/30 04:00:29;;;;;;;4.50;4.10;;;;;;;17.35;80.29;95975.44;4984490;28;20240;-60
2021/07/30 04:02:54;;;;;;;4.80;4.40;;;;;;;17.36;80.65;95978.88;4982691;28;20869;-56
2021/07/30 04:05:19;;;;;;;4.67;4.27;;;;;;;17.38;80.55;95977.53;4982601;28;20199;-57
2021/07/30 04:07:45;;;;;;;5.10;4.70;;;;;;;17.37;80.35;95975.16;4986640;28;20209;-56
2021/07/30 04:10:10;;;;;;;5.37;4.70;;;;;;;17.35;80.64;95978.09;4986319;28;20192;-56
2021/07/30 04:12:36;;;;;;;5.33;3.87;;;;;;;17.34;80.55;95975.69;4985606;28;20277;-57
2021/07/30 04:15:02;;;;;;;6.00;4.33;;;;;;;17.34;80.54;95973.03;4987838;28;20233;-60
2021/07/30 04:17:27;;;;;;;4.63;4.23;;;;;;;17.37;80.68;95970.63;4990841;28;20692;-60
2021/07/30 04:19:52;;;;;;;5.13;4.63;;;;;;;17.37;80.58;95975.16;4996881;28;20169;-56
2021/07/30 04:22:18;;;;;;;5.07;4.67;;;;;;;17.36;80.42;95970.91;4993003;28;20247;-56
2021/07/30 04:24:43;;;;;;;5.40;4.90;;;;;;;17.41;80.60;95976.19;4985939;28;20244;-60
2021/07/30 04:27:08;;;;;;;5.07;4.30;;;;;;;17.44;80.38;95983.59;4987791;28;20186;-57
2021/07/30 04:29:38;;;;;;;5.20;4.80;;;;;;;17.45;79.98;95977.22;4985826;28;20239;-58
2021/07/30 04:32:06;;;;;;;4.80;4.40;;;;;;;17.40;80.63;95985.22;4985879;28;20205;-60
2021/07/30 04:34:31;;;;;;;6.00;4.30;;;;;;;17.40;81.18;95975.41;4985407;28;20464;-57
2021/07/30 04:36:56;;;;;;;4.43;4.03;;;;;;;17.36;81.43;95989.50;4986970;28;20468;-61
2021/07/30 04:39:22;;;;;;;4.97;4.57;;;;;;;17.37;82.01;95983.91;4989527;28;20177;-60
2021/07/30 04:41:47;;;;;;;6.63;5.70;;;;;;;17.46;82.19;95984.13;4993382;28;20551;-56
2021/07/30 04:44:12;;;;;;;5.40;4.90;;;;;;;17.41;82.73;95987.59;4996020;28;20197;-61
2021/07/30 04:46:38;;;;;;;5.33;4.90;;;;;;;17.51;82.76;95978.00;4993163;28;20193;-60
2021/07/30 04:49:03;;;;;;;6.47;5.10;;;;;;;17.52;82.78;95983.03;4996346;28;20178;-61
2021/07/30 04:51:28;;;;;;;5.90;5.40;;;;;;;17.57;82.81;95979.53;4990041;28;20235;-60
2021/07/30 04:53:54;;;;;;;5.97;5.37;;;;;;;17.62;82.94;95982.97;4987002;28;20201;-56
2021/07/30 04:56:19;;;;;;;6.83;6.23;;;;;;;17.70;83.05;95984.22;4987719;28;20189;-60
2021/07/30 04:58:46;;;;;;;7.80;5.23;;;;;;;17.69;83.05;95977.31;4986013;28;20706;-60
2021/07/30 05:01:12;;;;;;;5.97;5.47;;;;;;;17.74;83.19;95982.56;4987753;28;20184;-56
2021/07/30 05:03:37;;;;;;;6.10;5.60;;;;;;;17.75;83.57;95979.66;4989312;28;20511;-59
2021/07/30 05:06:15;;;;;;;7.57;5.50;;;;;;;17.81;83.74;95980.41;4989194;28;20177;-56
2021/07/30 05:08:41;;;;;;;6.10;5.60;;;;;;;17.86;83.79;95973.19;4985732;28;20228;-57
2021/07/30 05:11:08;;;;;;;5.20;4.80;;;;;;;17.89;83.93;95977.94;4988594;28;20436;-55
2021/07/30 05:13:34;;;;;;;5.20;4.80;;;;;;;17.98;84.14;95970.13;4995606;28;20180;-56
2021/07/30 05:16:04;;;;;;;7.40;5.07;;;;;;;18.02;83.93;95971.94;4991734;28;20470;-60
2021/07/30 05:18:30;;;;;;;6.27;5.63;;;;;;;18.06;84.04;95964.19;4983775;28;20197;-60
2021/07/30 05:20:55;;;;;;;8.67;5.63;;;;;;;18.04;84.52;95964.50;4985321;28;20440;-57
2021/07/30 05:23:20;;;;;;;6.13;5.63;;;;;;;18.14;83.96;95971.53;4988398;28;20700;-60
2021/07/30 05:25:55;;;;;;;6.00;5.50;;;;;;;18.20;83.64;95971.22;4985085;28;20205;-57
2021/07/30 05:28:20;;;;;;;6.07;5.57;;;;;;;18.29;82.84;95972.19;4987675;28;20188;-60
2021/07/30 05:30:46;;;;;;;6.10;5.50;;;;;;;18.30;83.23;95971.09;4989239;28;20792;-60
2021/07/30 05:33:11;;;;;;;6.23;5.63;;;;;;;18.31;83.54;95974.56;4984568;28;20265;-57
2021/07/30 05:35:36;;;;;;;6.50;5.83;;;;;;;18.46;82.67;95977.09;4986986;28;20207;-61
2021/07/30 05:38:02;;;;;;;8.13;5.70;;;;;;;18.51;82.41;95974.34;4996199;28;20211;-61
2021/07/30 05:40:27;;;;;;;6.63;5.50;;;;;;;18.48;82.94;95971.47;4992542;28;20643;-56
2021/07/30 05:42:53;;;;;;;5.73;5.23;;;;;;;18.62;82.77;95975.00;4983821;28;20184;-57
2021/07/30 05:45:18;;;;;;;5.83;5.23;;;;;;;18.63;82.43;95979.25;4990567;28;20296;-57
2021/07/30 05:47:46;;;;;;;6.00;5.40;;;;;;;18.71;81.59;95976.75;4984210;28;20264;-60
2021/07/30 05:50:11;;;;;;;5.90;5.40;;;;;;;18.70;81.35;95977.06;4987754;28;20244;-60
2021/07/30 05:52:37;;;;;;;6.13;5.60;;;;;;;18.69;81.26;95978.91;4987685;28;20831;-58
2021/07/30 05:55:02;;;;;;;5.70;5.27;;;;;;;18.92;81.50;95979.94;4986695;28;21224;-57
2021/07/30 05:57:31;;;;;;;5.90;5.40;;;;;;;19.02;82.11;95979.81;4984940;28;20202;-60
2021/07/30 05:59:56;;;;;;;6.30;5.53;;;;;;;19.11;82.62;95981.50;4984489;28;20190;-56
2021/07/30 06:02:21;;;;;;;5.60;5.10;;;;;;;19.19;82.84;95972.09;4994197;28;20524;-56
2021/07/30 06:04:47;;;;;;;5.10;4.70;;;;;;;19.22;83.38;95969.63;4993612;28;20244;-57
2021/07/30 06:07:12;;;;;;;4.97;4.47;;;;;;;19.30;82.76;95976.97;4985257;28;20671;-56
2021/07/30 06:09:37;;;;;;;5.73;5.23;;;;;;;19.35;82.63;95968.94;4986070;28;20196;-60
2021/07/30 06:12:04;;;;;;;5.40;5.00;;;;;;;19.40;82.57;95965.41;4985363;28;20229;-56
2021/07/30 06:14:29;;;;;;;6.20;5.00;;;;;;;19.47;80.15;95965.84;4982866;28;20204;-59
2021/07/30 06:16:54;;;;;;;5.20;4.80;;;;;;;19.48;80.09;95956.75;4984614;28;20518;-60
2021/07/30 06:19:20;;;;;;;6.83;5.30;;;;;;;19.41;79.18;95957.13;4987121;28;20193;-57
2021/07/30 06:21:45;;;;;;;6.00;5.40;;;;;;;19.48;80.06;95955.97;4984774;28;20696;-60
2021/07/30 06:24:10;;;;;;;5.90;5.40;;;;;;;19.50;79.51;95959.91;4985480;28;21219;-56
2021/07/30 06:26:36;;;;;;;5.53;5.00;;;;;;;19.65;79.35;95958.88;4993180;28;20178;-60
2021/07/30 06:29:01;;;;;;;4.70;4.20;;;;;;;19.69;78.53;95962.53;4985099;28;20193;-56
2021/07/30 06:31:26;;;;;;;5.60;5.10;;;;;;;19.73;79.30;95964.31;4984797;28;20189;-56
2021/07/30 06:33:52;;;;;;;5.37;4.87;;;;;;;19.91;79.50;95955.47;4986212;28;20255;-56
2021/07/30 06:36:17;;;;;;;5.27;4.57;;;;;;;20.01;79.70;95955.28;4984132;28;20189;-56
2021/07/30 06:38:43;;;;;;;5.33;4.93;;;;;;;20.07;77.88;95954.13;4987542;28;20209;-56
2021/07/30 06:41:12;;;;;;;6.17;5.53;;;;;;;19.98;79.00;95949.75;4982896;28;20264;-57
2021/07/30 06:43:37;;;;;;;4.90;4.53;;;;;;;20.16;78.26;95948.88;4985302;28;20182;-61
2021/07/30 06:46:02;;;;;;;5.23;4.70;;;;;;;20.22;78.02;95956.50;4985457;28;20440;-59
2021/07/30 06:48:28;;;;;;;4.93;4.50;;;;;;;20.27;76.88;95951.06;4990067;28;20203;-56
2021/07/30 06:50:54;;;;;;;5.20;4.80;;;;;;;20.12;75.96;95945.22;4994229;28;20178;-56
2021/07/30 06:53:19;;;;;;;6.20;4.27;;;;;;;20.34;75.96;95945.34;4990623;28;20660;-55
2021/07/30 06:55:45;;;;;;;5.77;5.20;;;;;;;20.19;75.08;95954.44;4984744;28;20461;-60
2021/07/30 06:58:10;;;;;;;5.20;4.80;;;;;;;20.36;75.41;95941.28;4982382;28;20300;-60
2021/07/30 07:00:35;;;;;;;5.47;4.70;;;;;;;20.37;75.28;95939.41;4986401;28;20240;-56
2021/07/30 07:03:03;;;;;;;5.83;5.20;;;;;;;20.51;75.00;95945.53;4985562;28;20189;-56
2021/07/30 07:05:28;;;;;;;11.23;5.40;;;;;;;20.56;73.85;95952.66;4988816;28;20197;-60
2021/07/30 07:07:54;;;;;;;5.30;4.80;;;;;;;20.46;74.48;95941.09;4984413;28;22041;-60
2021/07/30 07:10:19;;;;;;;5.10;4.70;;;;;;;20.59;74.44;95938.69;4987006;28;20225;-59
2021/07/30 07:12:44;;;;;;;7.07;5.07;;;;;;;20.69;74.52;95941.19;4985798;28;20195;-59
2021/07/30 07:15:10;;;;;;;5.03;4.63;;;;;;;20.76;73.93;95941.56;4993760;28;20197;-56
2021/07/30 07:17:36;;;;;;;5.63;5.00;;;;;;;20.94;73.12;95943.28;4992613;28;20227;-63
2021/07/30 07:20:02;;;;;;;5.77;5.17;;;;;;;20.97;73.60;95940.00;4993982;28;20906;-63
2021/07/30 07:22:29;;;;;;;5.80;5.30;;;;;;;21.05;73.69;95936.66;4987759;28;20185;-63
2021/07/30 07:24:56;;;;;;;5.43;4.93;;;;;;;21.17;73.92;95936.91;4983670;28;20469;-58
2021/07/30 07:27:22;;;;;;;6.40;5.20;;;;;;;21.20;72.89;95937.09;4982877;28;20836;-61
2021/07/30 07:29:47;;;;;;;5.87;5.30;;;;;;;21.15;73.24;95936.41;4983221;28;20570;-60
2021/07/30 07:32:12;;;;;;;6.33;5.73;;;;;;;21.15;72.17;95934.53;4980739;28;20719;-65
2021/07/30 07:34:38;;;;;;;5.00;4.50;;;;;;;21.16;72.53;95930.00;4981268;28;20564;-64
2021/07/30 07:37:03;;;;;;;6.30;5.50;;;;;;;21.20;71.60;95936.28;4979120;28;20208;-57
2021/07/30 07:39:29;;;;;;;5.93;5.37;;;;;;;21.31;73.03;95929.63;4985027;28;20188;-58
2021/07/30 07:41:55;;;;;;;6.33;5.57;;;;;;;21.41;72.15;95937.41;4976825;28;20532;-58
2021/07/30 07:44:20;;;;;;;5.90;5.40;;;;;;;21.62;72.37;95930.47;4977532;28;20449;-64
2021/07/30 07:46:47;;;;;;;6.40;5.20;;;;;;;21.69;71.97;95928.13;5008850;28;20548;-58
2021/07/30 07:49:12;;;;;;;6.10;5.23;;;;;;;21.86;72.16;95924.81;5016779;28;20165;-60
2021/07/30 07:51:37;;;;;;;5.13;4.63;;;;;;;21.75;71.91;95934.16;5013010;28;20955;-60
2021/07/30 07:54:04;;;;;;;5.57;5.00;;;;;;;21.86;69.83;95928.28;5013171;28;20185;-63
2021/07/30 07:56:29;;;;;;;6.10;5.50;;;;;;;21.70;70.93;95931.63;4995621;28;20679;-63
2021/07/30 07:58:54;;;;;;;5.70;5.20;;;;;;;21.69;71.94;95936.16;4993803;28;20466;-58
2021/07/30 08:01:20;;;;;;;5.97;5.40;;;;;;;21.78;70.86;95930.84;4993413;28;20174;-64
2021/07/30 08:03:46;;;;;;;5.30;4.90;;;;;;;21.90;70.52;95926.56;4993403;28;20179;-58
2021/07/30 08:06:18;;;;;;;5.40;5.00;;;;;;;21.89;70.98;95929.53;4993820;28;20529;-59
2021/07/30 08:08:45;;;;;;;7.07;5.23;;;;;;;21.91;70.25;95924.66;4993736;28;20416;-63
2021/07/30 08:11:11;;;;;;;5.67;5.17;;;;;;;22.00;68.78;95928.16;4977367;28;20488;-59
2021/07/30 08:13:36;;;;;;;6.07;5.00;;;;;;;22.01;69.54;95925.19;4973280;28;20815;-64
2021/07/30 08:16:02;;;;;;;5.20;4.80;;;;;;;22.15;67.58;95928.56;4974189;28;20194;-63
2021/07/30 08:18:28;;;;;;;8.40;5.60;;;;;;;22.28;67.68;95922.28;4974114;28;20672;-63
2021/07/30 08:20:53;;;;;;;5.33;4.83;;;;;;;22.26;66.51;95923.72;4974019;28;20178;-62
2021/07/30 08:23:18;;;;;;;5.43;4.90;;;;;;;22.49;66.35;95926.00;4973587;28;20229;-61
2021/07/30 08:25:44;;;;;;;5.47;5.07;;;;;;;22.59;64.58;95935.66;4987844;28;20197;-63
2021/07/30 08:28:09;;;;;;;5.50;5.00;;;;;;;22.44;65.09;95930.72;4993380;28;20165;-61
2021/07/30 08:30:34;;;;;;;5.30;4.40;;;;;;;22.73;62.93;95927.50;4993525;28;20626;-65
2021/07/30 08:33:00;;;;;;;4.87;4.47;;;;;;;22.80;63.60;95925.94;4992973;28;20249;-64
2021/07/30 08:35:26;;;;;;;4.93;4.43;;;;;;;22.92;63.76;95930.69;4991962;28;20284;-62
2021/07/30 08:37:51;;;;;;;5.00;4.57;;;;;;;22.98;63.26;95924.03;4992652;28;20546;-62
2021/07/30 08:40:17;;;;;;;5.70;5.10;;;;;;;22.95;62.53;95932.72;4989876;28;20264;-63
2021/07/30 08:42:42;;;;;;;4.73;4.30;;;;;;;23.00;62.20;95927.22;4992876;28;20200;-60
2021/07/30 08:45:08;;;;;;;5.77;5.17;;;;;;;23.09;62.88;95936.03;4995277;28;20268;-60
2021/07/30 08:47:34;;;;;;;8.53;4.90;;;;;;;23.12;64.01;95925.47;5012731;28;20231;-57
2021/07/30 08:50:00;;;;;;;6.67;4.80;;;;;;;23.09;64.33;95925.31;5012293;28;20722;-61
2021/07/30 08:52:35;;;;;;;6.13;5.63;;;;;;;23.38;63.48;95912.09;5012200;28;20439;-61
2021/07/30 08:55:00;;;;;;;5.03;4.63;;;;;;;23.62;62.73;95917.75;4998524;28;20443;-58
2021/07/30 08:57:26;;;;;;;7.63;5.40;;;;;;;23.18;62.85;95920.75;4992798;28;20495;-58
2021/07/30 08:59:51;;;;;;;7.23;5.40;;;;;;;23.14;62.96;95923.28;4973496;28;20186;-57
2021/07/30 09:02:17;;;;;;;6.37;4.70;;;;;;;22.98;63.80;95916.00;4976460;28;20201;-57
2021/07/30 09:04:42;;;;;;;5.33;4.93;;;;;;;23.07;64.25;95922.16;4976412;28;20190;-62
2021/07/30 09:07:08;;;;;;;6.23;4.77;;;;;;;23.43;63.56;95915.41;4976910;28;20506;-57
2021/07/30 09:09:33;;;;;;;6.50;5.40;;;;;;;23.49;64.68;95913.34;4976720;28;20167;-57
2021/07/30 09:12:02;;;;;;;7.30;5.23;;;;;;;23.63;64.51;95915.81;4976750;28;20220;-57
2021/07/30 09:14:36;;;;;;;5.40;4.97;;;;;;;23.73;63.40;95907.44;4993347;28;20259;-61
2021/07/30 09:17:03;;;;;;;5.47;5.03;;;;;;;23.75;60.11;95908.69;4995881;28;20458;-57
2021/07/30 09:19:28;;;;;;;5.23;4.73;;;;;;;23.78;61.05;95904.59;4996075;28;20405;-57
2021/07/30 09:22:07;;;;;;;6.50;4.73;;;;;;;23.96;61.59;95895.38;4996306;28;20892;-61
2021/07/30 09:24:42;;;;;;;5.63;4.70;;;;;;;24.08;61.43;95898.97;4995492;28;20185;-56
2021/07/30 09:27:12;;;;;;;6.10;5.50;;;;;;;24.31;61.94;95905.66;4995244;28;20416;-61
2021/07/30 09:29:39;;;;;;;6.23;5.60;;;;;;;24.54;61.19;95916.13;4976513;28;20410;-56
2021/07/30 09:32:09;;;;;;;6.30;5.80;;;;;;;24.71;60.60;95911.50;4976435;28;20876;-61
2021/07/30 09:34:36;;;;;;;6.20;5.10;;;;;;;24.42;61.69;95908.78;4975845;28;20931;-61
2021/07/30 09:37:27;;;;;;;5.80;5.30;;;;;;;24.43;60.13;95904.97;4976131;28;20406;-57
2021/07/30 09:39:53;;;;;;;5.60;5.10;;;;;;;24.34;60.73;95905.03;4975896;28;20924;-57
2021/07/30 09:42:33;;;;;;;5.60;5.10;;;;;;;24.38;61.57;95910.53;4987449;28;20432;-61
2021/07/30 09:45:13;;;;;;;6.07;5.57;;;;;;;24.65;60.09;95895.84;4995130;28;20895;-61
2021/07/30 09:47:50;;;;;;;5.73;5.23;;;;;;;24.75;61.21;95890.91;4995529;28;20483;-57
2021/07/30 09:50:16;;;;;;;6.17;5.20;;;;;;;24.78;61.25;95884.09;4995516;28;20499;-57
2021/07/30 09:52:42;;;;;;;6.40;5.70;;;;;;;24.96;59.99;95872.09;4994944;28;20484;-60
2021/07/30 09:55:12;;;;;;;6.70;5.97;;;;;;;24.89;60.27;95877.22;4995384;28;20216;-57
2021/07/30 09:57:41;;;;;;;6.10;5.60;;;;;;;24.99;61.22;95871.41;4978793;28;20198;-61
2021/07/30 10:00:08;;;;;;;6.77;6.17;;;;;;;24.90;60.57;95868.00;4975763;28;20402;-61
2021/07/30 10:02:36;;;;;;;6.40;6.00;;;;;;;25.24;59.51;95859.66;4975739;28;20414;-56
2021/07/30 10:05:04;;;;;;;6.07;5.53;;;;;;;25.58;58.14;95864.75;4974846;28;20430;-61
2021/07/30 10:07:32;;;;;;;6.27;5.63;;;;;;;25.73;59.01;95863.31;4975504;28;20409;-61
2021/07/30 10:10:05;;;;;;;6.57;5.97;;;;;;;25.24;58.90;95865.03;4975543;28;20492;-57
2021/07/30 10:12:34;;;;;;;9.50;6.10;;;;;;;25.20;58.89;95856.06;4992608;28;20421;-61
2021/07/30 10:15:03;;;;;;;6.40;5.90;;;;;;;25.73;58.35;95855.25;4994600;28;20475;-57
2021/07/30 10:17:33;;;;;;;7.10;6.40;;;;;;;25.79;58.57;95859.28;4994873;28;20452;-57
2021/07/30 10:20:02;;;;;;;5.90;5.40;;;;;;;26.15;59.01;95856.63;4994919;28;20397;-57
2021/07/30 10:22:49;;;;;;;6.67;5.67;;;;;;;26.00;58.83;95843.81;4994884;28;20436;-57
2021/07/30 10:25:24;;;;;;;6.70;6.10;;;;;;;25.72;57.47;95843.69;4993583;28;20421;-61
2021/07/30 10:27:55;;;;;;;6.57;5.97;;;;;;;26.16;59.15;95855.53;4975339;28;20448;-57
2021/07/30 10:30:21;;;;;;;6.50;5.90;;;;;;;26.54;56.22;95841.69;4975336;28;20438;-58
2021/07/30 10:32:54;;;;;;;5.60;5.10;;;;;;;26.48;56.78;95848.41;4974708;28;20469;-56
2021/07/30 10:35:25;;;;;;;6.83;6.23;;;;;;;26.50;55.78;95856.97;4975315;28;20213;-62
2021/07/30 10:37:51;;;;;;;6.40;5.90;;;;;;;26.32;56.52;95856.41;4975142;28;20457;-57
2021/07/30 10:40:19;;;;;;;7.03;6.43;;;;;;;26.45;56.26;95839.88;4978277;28;20760;-61
2021/07/30 10:43:05;;;;;;;7.47;6.77;;;;;;;26.04;57.31;95848.22;4994271;28;20177;-58
2021/07/30 10:45:31;;;;;;;7.90;6.47;;;;;;;26.31;56.13;95841.34;4994403;28;20468;-57
2021/07/30 10:48:11;;;;;;;6.30;5.80;;;;;;;26.32;56.37;95849.09;4994607;28;20404;-57
2021/07/30 10:50:57;;;;;;;6.60;6.10;;;;;;;26.01;57.59;95845.38;4994382;28;20425;-61
2021/07/30 10:56:07;;;;;;;7.37;6.33;;;;;;;26.60;56.77;95824.91;4983344;28;20432;-61
2021/07/30 10:58:44;;;;;;;6.83;6.17;;;;;;;26.99;58.24;95816.09;4974750;28;20832;-62
2021/07/30 11:01:18;;;;;;;6.60;6.00;;;;;;;27.08;55.15;95824.03;4974718;28;20796;-57
2021/07/30 11:03:50;;;;;;;6.30;5.80;;;;;;;26.96;55.79;95826.78;4974317;28;20418;-61
2021/07/30 11:06:26;;;;;;;9.83;5.77;;;;;;;27.17;54.70;95822.75;4975118;28;20763;-61
2021/07/30 11:09:06;;;;;;;6.70;6.20;;;;;;;27.39;53.48;95824.13;4974879;28;20413;-61
2021/07/30 11:11:55;;;;;;;6.83;6.07;;;;;;;27.12;55.32;95822.22;4989967;28;20915;-58
2021/07/30 11:14:30;;;;;;;7.40;6.00;;;;;;;27.41;56.34;95816.47;4974428;28;20472;-62
2021/07/30 11:16:59;;;;;;;5.77;5.30;;;;;;;27.66;57.02;95809.81;4974486;28;20405;-61
2021/07/30 11:19:27;;;;;;;6.00;5.60;;;;;;;28.10;57.91;95811.28;4974687;28;20769;-61
2021/07/30 11:21:54;;;;;;;5.33;4.93;;;;;;;28.52;56.78;95816.91;4974674;28;20782;-57
2021/07/30 11:24:20;;;;;;;5.50;5.00;;;;;;;28.49;54.26;95814.09;4974094;28;20442;-62
2021/07/30 11:26:46;;;;;;;5.27;4.80;;;;;;;28.79;56.50;95796.25;4979445;28;20468;-62
2021/07/30 11:29:16;;;;;;;5.50;5.10;;;;;;;29.06;52.66;95806.06;4993908;28;20514;-62
2021/07/30 11:32:01;;;;;;;6.53;6.03;;;;;;;29.32;54.54;95800.78;4994019;28;20416;-58
2021/07/30 11:34:30;;;;;;;5.77;5.27;;;;;;;29.63;52.06;95794.38;4993480;28;20467;-57
2021/07/30 11:36:59;;;;;;;6.37;5.17;;;;;;;29.76;50.33;95795.78;4993936;28;20979;-58
2021/07/30 11:39:33;;;;;;;5.63;5.23;;;;;;;29.86;52.27;95793.25;4993492;28;20416;-58